sensor_id;sensor_type;location;lat;lon;timestamp;temperature;humidity
4425;DHT22;2225;53.568;13.266;2023-07-28T00:02:01;21.40;94.30
4425;DHT22;2225;53.568;13.266;2023-07-28T00:04:28;21.40;94.30
4425;DHT22;2225;53.568;13.266;2023-07-28T00:06:55;21.40;94.30
4425;DHT22;2225;53.568;13.266;2023-07-28T00:09:22;21.40;94.40
4425;DHT22;2225;53.568;13.266;2023-07-28T00:11:49;21.40;94.40
4425;DHT22;2225;53.568;13.266;2023-07-28T00:14:16;21.40;94.40
4425;DHT22;2225;53.568;13.266;2023-07-28T00:16:44;21.40;94.40
4425;DHT22;2225;53.568;13.266;2023-07-28T00:19:11;21.40;94.40
4425;DHT22;2225;53.568;13.266;2023-07-28T00:21:38;21.40;94.50
4425;DHT22;2225;53.568;13.266;2023-07-28T00:24:05;21.40;94.50
4425;DHT22;2225;53.568;13.266;2023-07-28T00:26:32;21.40;94.40
4425;DHT22;2225;53.568;13.266;2023-07-28T00:28:59;21.40;94.50
4425;DHT22;2225;53.568;13.266;2023-07-28T00:31:26;21.40;94.40
4425;DHT22;2225;53.568;13.266;2023-07-28T00:33:53;21.40;94.40
4425;DHT22;2225;53.568;13.266;2023-07-28T00:36:20;21.40;94.40
4425;DHT22;2225;53.568;13.266;2023-07-28T00:38:47;21.40;94.40
4425;DHT22;2225;53.568;13.266;2023-07-28T00:41:15;21.50;94.40
4425;DHT22;2225;53.568;13.266;2023-07-28T00:43:42;21.50;94.40
4425;DHT22;2225;53.568;13.266;2023-07-28T00:46:13;21.50;94.40
4425;DHT22;2225;53.568;13.266;2023-07-28T00:48:40;21.50;94.40
4425;DHT22;2225;53.568;13.266;2023-07-28T00:51:08;21.50;94.40
4425;DHT22;2225;53.568;13.266;2023-07-28T00:53:35;21.50;94.50
4425;DHT22;2225;53.568;13.266;2023-07-28T00:56:04;21.50;94.50
4425;DHT22;2225;53.568;13.266;2023-07-28T00:58:32;21.50;94.50
4425;DHT22;2225;53.568;13.266;2023-07-28T01:00:59;21.50;94.50
4425;DHT22;2225;53.568;13.266;2023-07-28T01:03:26;21.50;94.60
4425;DHT22;2225;53.568;13.266;2023-07-28T01:09:09;21.50;94.70
4425;DHT22;2225;53.568;13.266;2023-07-28T01:11:53;21.50;94.70
4425;DHT22;2225;53.568;13.266;2023-07-28T01:14:20;21.50;94.80
4425;DHT22;2225;53.568;13.266;2023-07-28T01:16:47;21.50;94.60
4425;DHT22;2225;53.568;13.266;2023-07-28T01:19:17;21.50;94.80
4425;DHT22;2225;53.568;13.266;2023-07-28T01:21:51;21.50;94.90
4425;DHT22;2225;53.568;13.266;2023-07-28T01:24:39;21.50;95.00
4425;DHT22;2225;53.568;13.266;2023-07-28T01:27:11;21.50;95.00
4425;DHT22;2225;53.568;13.266;2023-07-28T01:29:38;21.50;95.00
4425;DHT22;2225;53.568;13.266;2023-07-28T01:32:05;21.50;95.00
4425;DHT22;2225;53.568;13.266;2023-07-28T01:34:32;21.50;95.10
4425;DHT22;2225;53.568;13.266;2023-07-28T01:36:59;21.50;95.10
4425;DHT22;2225;53.568;13.266;2023-07-28T01:39:26;21.50;95.20
4425;DHT22;2225;53.568;13.266;2023-07-28T01:41:53;21.50;95.10
4425;DHT22;2225;53.568;13.266;2023-07-28T01:44:20;21.50;95.10
4425;DHT22;2225;53.568;13.266;2023-07-28T01:46:47;21.50;95.10
4425;DHT22;2225;53.568;13.266;2023-07-28T01:49:14;21.50;95.10
4425;DHT22;2225;53.568;13.266;2023-07-28T01:51:41;21.50;95.10
4425;DHT22;2225;53.568;13.266;2023-07-28T01:54:08;21.50;95.10
4425;DHT22;2225;53.568;13.266;2023-07-28T01:56:36;21.50;95.00
4425;DHT22;2225;53.568;13.266;2023-07-28T01:59:04;21.50;95.20
4425;DHT22;2225;53.568;13.266;2023-07-28T02:01:32;21.50;95.30
4425;DHT22;2225;53.568;13.266;2023-07-28T02:03:59;21.50;95.10
4425;DHT22;2225;53.568;13.266;2023-07-28T02:06:26;21.50;95.10
4425;DHT22;2225;53.568;13.266;2023-07-28T02:08:56;21.50;95.20
4425;DHT22;2225;53.568;13.266;2023-07-28T02:11:23;21.50;95.20
4425;DHT22;2225;53.568;13.266;2023-07-28T02:13:50;21.50;95.20
4425;DHT22;2225;53.568;13.266;2023-07-28T02:16:17;21.60;95.20
4425;DHT22;2225;53.568;13.266;2023-07-28T02:18:44;21.50;95.30
4425;DHT22;2225;53.568;13.266;2023-07-28T02:21:11;21.50;95.30
4425;DHT22;2225;53.568;13.266;2023-07-28T02:23:38;21.50;95.40
4425;DHT22;2225;53.568;13.266;2023-07-28T02:26:05;21.50;95.40
4425;DHT22;2225;53.568;13.266;2023-07-28T02:28:32;21.40;95.40
4425;DHT22;2225;53.568;13.266;2023-07-28T02:30:59;21.40;95.40
4425;DHT22;2225;53.568;13.266;2023-07-28T02:33:27;21.40;95.60
4425;DHT22;2225;53.568;13.266;2023-07-28T02:35:56;21.40;95.60
4425;DHT22;2225;53.568;13.266;2023-07-28T02:38:23;21.40;95.60
4425;DHT22;2225;53.568;13.266;2023-07-28T02:40:50;21.30;95.70
4425;DHT22;2225;53.568;13.266;2023-07-28T02:43:17;21.30;95.70
4425;DHT22;2225;53.568;13.266;2023-07-28T02:45:54;21.30;95.70
4425;DHT22;2225;53.568;13.266;2023-07-28T02:48:21;21.30;95.80
4425;DHT22;2225;53.568;13.266;2023-07-28T02:50:50;21.30;95.70
4425;DHT22;2225;53.568;13.266;2023-07-28T02:53:18;21.40;95.90
4425;DHT22;2225;53.568;13.266;2023-07-28T02:55:47;21.30;96.10
4425;DHT22;2225;53.568;13.266;2023-07-28T02:58:14;21.30;95.80
4425;DHT22;2225;53.568;13.266;2023-07-28T03:00:42;21.30;95.90
4425;DHT22;2225;53.568;13.266;2023-07-28T03:03:13;21.30;95.90
4425;DHT22;2225;53.568;13.266;2023-07-28T03:05:41;21.30;95.90
4425;DHT22;2225;53.568;13.266;2023-07-28T03:08:17;21.30;95.80
4425;DHT22;2225;53.568;13.266;2023-07-28T03:10:44;21.40;95.80
4425;DHT22;2225;53.568;13.266;2023-07-28T03:13:11;21.40;95.80
4425;DHT22;2225;53.568;13.266;2023-07-28T03:15:38;21.40;95.80
4425;DHT22;2225;53.568;13.266;2023-07-28T03:18:05;21.40;95.80
4425;DHT22;2225;53.568;13.266;2023-07-28T03:20:32;21.40;95.80
4425;DHT22;2225;53.568;13.266;2023-07-28T03:22:59;21.40;95.70
4425;DHT22;2225;53.568;13.266;2023-07-28T03:25:26;21.50;95.60
4425;DHT22;2225;53.568;13.266;2023-07-28T03:27:53;21.50;95.50
4425;DHT22;2225;53.568;13.266;2023-07-28T03:30:20;21.50;95.60
4425;DHT22;2225;53.568;13.266;2023-07-28T03:32:47;21.50;95.60
4425;DHT22;2225;53.568;13.266;2023-07-28T03:35:15;21.50;95.70
4425;DHT22;2225;53.568;13.266;2023-07-28T03:37:49;21.50;95.70
4425;DHT22;2225;53.568;13.266;2023-07-28T03:40:16;21.50;95.70
4425;DHT22;2225;53.568;13.266;2023-07-28T03:42:48;21.50;95.70
4425;DHT22;2225;53.568;13.266;2023-07-28T03:45:15;21.60;95.80
4425;DHT22;2225;53.568;13.266;2023-07-28T03:47:42;21.50;95.80
4425;DHT22;2225;53.568;13.266;2023-07-28T03:50:09;21.50;95.80
4425;DHT22;2225;53.568;13.266;2023-07-28T03:52:36;21.60;95.90
4425;DHT22;2225;53.568;13.266;2023-07-28T03:55:04;21.50;95.90
4425;DHT22;2225;53.568;13.266;2023-07-28T03:57:31;21.60;95.90
4425;DHT22;2225;53.568;13.266;2023-07-28T03:59:58;21.60;95.90
4425;DHT22;2225;53.568;13.266;2023-07-28T04:02:25;21.60;95.80
4425;DHT22;2225;53.568;13.266;2023-07-28T04:04:55;21.60;95.90
4425;DHT22;2225;53.568;13.266;2023-07-28T04:07:23;21.60;96.00
4425;DHT22;2225;53.568;13.266;2023-07-28T04:09:50;21.60;95.80
4425;DHT22;2225;53.568;13.266;2023-07-28T04:12:17;21.60;95.80
4425;DHT22;2225;53.568;13.266;2023-07-28T04:14:44;21.50;95.90
4425;DHT22;2225;53.568;13.266;2023-07-28T04:17:10;21.50;96.00
4425;DHT22;2225;53.568;13.266;2023-07-28T04:19:38;21.50;96.00
4425;DHT22;2225;53.568;13.266;2023-07-28T04:22:05;21.50;96.10
4425;DHT22;2225;53.568;13.266;2023-07-28T04:24:34;21.50;96.20
4425;DHT22;2225;53.568;13.266;2023-07-28T04:27:01;21.50;96.00
4425;DHT22;2225;53.568;13.266;2023-07-28T04:29:28;21.50;95.90
4425;DHT22;2225;53.568;13.266;2023-07-28T04:31:55;21.50;96.10
4425;DHT22;2225;53.568;13.266;2023-07-28T04:34:28;21.50;96.10
4425;DHT22;2225;53.568;13.266;2023-07-28T04:37:12;21.50;96.00
4425;DHT22;2225;53.568;13.266;2023-07-28T04:39:53;21.50;96.00
4425;DHT22;2225;53.568;13.266;2023-07-28T04:42:20;21.50;96.10
4425;DHT22;2225;53.568;13.266;2023-07-28T04:44:48;21.50;96.20
4425;DHT22;2225;53.568;13.266;2023-07-28T04:47:17;21.50;96.20
4425;DHT22;2225;53.568;13.266;2023-07-28T04:49:44;21.60;96.30
4425;DHT22;2225;53.568;13.266;2023-07-28T04:52:11;21.60;96.40
4425;DHT22;2225;53.568;13.266;2023-07-28T04:54:47;21.60;96.40
4425;DHT22;2225;53.568;13.266;2023-07-28T04:57:14;21.60;96.40
4425;DHT22;2225;53.568;13.266;2023-07-28T04:59:42;21.60;96.50
4425;DHT22;2225;53.568;13.266;2023-07-28T05:02:09;21.70;96.50
4425;DHT22;2225;53.568;13.266;2023-07-28T05:04:36;21.70;96.50
4425;DHT22;2225;53.568;13.266;2023-07-28T05:07:04;21.70;96.50
4425;DHT22;2225;53.568;13.266;2023-07-28T05:09:31;21.80;96.30
4425;DHT22;2225;53.568;13.266;2023-07-28T05:11:58;21.80;96.10
4425;DHT22;2225;53.568;13.266;2023-07-28T05:14:25;21.90;96.10
4425;DHT22;2225;53.568;13.266;2023-07-28T05:16:52;21.90;96.00
4425;DHT22;2225;53.568;13.266;2023-07-28T05:19:32;21.90;96.00
4425;DHT22;2225;53.568;13.266;2023-07-28T05:22:18;21.90;96.00
4425;DHT22;2225;53.568;13.266;2023-07-28T05:24:51;21.90;96.00
4425;DHT22;2225;53.568;13.266;2023-07-28T05:27:23;21.90;95.80
4425;DHT22;2225;53.568;13.266;2023-07-28T05:29:50;21.90;95.70
4425;DHT22;2225;53.568;13.266;2023-07-28T05:32:17;22.00;95.70
4425;DHT22;2225;53.568;13.266;2023-07-28T05:35:07;21.90;95.80
4425;DHT22;2225;53.568;13.266;2023-07-28T05:37:34;21.90;95.90
4425;DHT22;2225;53.568;13.266;2023-07-28T05:40:01;22.00;96.00
4425;DHT22;2225;53.568;13.266;2023-07-28T05:42:31;21.90;96.00
4425;DHT22;2225;53.568;13.266;2023-07-28T05:44:59;22.00;95.90
4425;DHT22;2225;53.568;13.266;2023-07-28T05:47:26;22.00;95.90
4425;DHT22;2225;53.568;13.266;2023-07-28T05:49:53;22.00;95.80
4425;DHT22;2225;53.568;13.266;2023-07-28T05:52:21;22.00;95.90
4425;DHT22;2225;53.568;13.266;2023-07-28T05:54:49;22.00;95.90
4425;DHT22;2225;53.568;13.266;2023-07-28T05:57:16;22.00;95.90
4425;DHT22;2225;53.568;13.266;2023-07-28T05:59:43;22.00;95.90
4425;DHT22;2225;53.568;13.266;2023-07-28T06:02:10;22.00;96.10
4425;DHT22;2225;53.568;13.266;2023-07-28T06:04:52;22.10;95.60
4425;DHT22;2225;53.568;13.266;2023-07-28T06:07:19;22.10;95.60
4425;DHT22;2225;53.568;13.266;2023-07-28T06:09:46;22.10;95.50
4425;DHT22;2225;53.568;13.266;2023-07-28T06:12:14;22.10;95.50
4425;DHT22;2225;53.568;13.266;2023-07-28T06:14:42;22.10;95.60
4425;DHT22;2225;53.568;13.266;2023-07-28T06:17:11;22.10;95.70
4425;DHT22;2225;53.568;13.266;2023-07-28T06:19:38;22.10;95.60
4425;DHT22;2225;53.568;13.266;2023-07-28T06:22:05;22.10;95.80
4425;DHT22;2225;53.568;13.266;2023-07-28T06:24:36;22.10;95.90
4425;DHT22;2225;53.568;13.266;2023-07-28T06:27:03;22.10;95.90
4425;DHT22;2225;53.568;13.266;2023-07-28T06:29:36;22.10;95.80
4425;DHT22;2225;53.568;13.266;2023-07-28T06:32:04;22.10;95.70
4425;DHT22;2225;53.568;13.266;2023-07-28T06:34:31;22.20;95.80
4425;DHT22;2225;53.568;13.266;2023-07-28T06:36:58;22.20;95.60
4425;DHT22;2225;53.568;13.266;2023-07-28T06:39:25;22.20;95.50
4425;DHT22;2225;53.568;13.266;2023-07-28T06:41:52;22.30;95.40
4425;DHT22;2225;53.568;13.266;2023-07-28T06:44:20;22.30;95.40
4425;DHT22;2225;53.568;13.266;2023-07-28T06:46:47;22.40;95.50
4425;DHT22;2225;53.568;13.266;2023-07-28T06:49:14;22.40;95.60
4425;DHT22;2225;53.568;13.266;2023-07-28T06:51:42;22.50;95.60
4425;DHT22;2225;53.568;13.266;2023-07-28T06:54:10;22.50;95.60
4425;DHT22;2225;53.568;13.266;2023-07-28T06:56:39;22.60;95.70
4425;DHT22;2225;53.568;13.266;2023-07-28T06:59:08;22.70;95.50
4425;DHT22;2225;53.568;13.266;2023-07-28T07:01:44;22.70;95.10
4425;DHT22;2225;53.568;13.266;2023-07-28T07:04:11;22.80;95.00
4425;DHT22;2225;53.568;13.266;2023-07-28T07:06:38;22.80;95.00
4425;DHT22;2225;53.568;13.266;2023-07-28T07:09:05;22.90;94.80
4425;DHT22;2225;53.568;13.266;2023-07-28T07:11:33;22.90;94.90
4425;DHT22;2225;53.568;13.266;2023-07-28T07:14:00;22.90;95.10
4425;DHT22;2225;53.568;13.266;2023-07-28T07:16:27;22.90;95.20
4425;DHT22;2225;53.568;13.266;2023-07-28T07:18:54;23.00;95.30
4425;DHT22;2225;53.568;13.266;2023-07-28T07:21:21;23.00;95.40
4425;DHT22;2225;53.568;13.266;2023-07-28T07:23:48;23.10;95.40
4425;DHT22;2225;53.568;13.266;2023-07-28T07:26:24;23.20;95.20
4425;DHT22;2225;53.568;13.266;2023-07-28T07:28:51;23.20;95.10
4425;DHT22;2225;53.568;13.266;2023-07-28T07:31:19;23.30;94.90
4425;DHT22;2225;53.568;13.266;2023-07-28T07:33:46;23.30;94.50
4425;DHT22;2225;53.568;13.266;2023-07-28T07:36:17;23.30;94.40
4425;DHT22;2225;53.568;13.266;2023-07-28T07:38:45;23.40;93.80
4425;DHT22;2225;53.568;13.266;2023-07-28T07:41:13;23.40;93.70
4425;DHT22;2225;53.568;13.266;2023-07-28T07:43:46;23.40;93.70
4425;DHT22;2225;53.568;13.266;2023-07-28T07:46:14;23.40;93.50
4425;DHT22;2225;53.568;13.266;2023-07-28T07:48:42;23.50;93.90
4425;DHT22;2225;53.568;13.266;2023-07-28T07:51:09;23.50;94.20
4425;DHT22;2225;53.568;13.266;2023-07-28T07:53:37;23.50;94.30
4425;DHT22;2225;53.568;13.266;2023-07-28T07:56:05;23.60;94.30
4425;DHT22;2225;53.568;13.266;2023-07-28T07:58:32;23.70;94.40
4425;DHT22;2225;53.568;13.266;2023-07-28T08:01:00;23.70;94.00
4425;DHT22;2225;53.568;13.266;2023-07-28T08:03:27;23.80;94.10
4425;DHT22;2225;53.568;13.266;2023-07-28T08:05:54;23.90;93.50
4425;DHT22;2225;53.568;13.266;2023-07-28T08:08:21;24.00;93.10
4425;DHT22;2225;53.568;13.266;2023-07-28T08:10:49;24.00;93.00
4425;DHT22;2225;53.568;13.266;2023-07-28T08:13:17;24.10;93.10
4425;DHT22;2225;53.568;13.266;2023-07-28T08:15:44;24.20;93.60
4425;DHT22;2225;53.568;13.266;2023-07-28T08:18:15;24.20;92.90
4425;DHT22;2225;53.568;13.266;2023-07-28T08:20:42;24.20;92.80
4425;DHT22;2225;53.568;13.266;2023-07-28T08:23:09;24.20;92.70
4425;DHT22;2225;53.568;13.266;2023-07-28T08:25:36;24.20;92.70
4425;DHT22;2225;53.568;13.266;2023-07-28T08:28:03;24.20;92.70
4425;DHT22;2225;53.568;13.266;2023-07-28T08:30:31;24.20;92.70
4425;DHT22;2225;53.568;13.266;2023-07-28T08:32:59;24.10;92.70
4425;DHT22;2225;53.568;13.266;2023-07-28T08:35:26;24.10;93.00
4425;DHT22;2225;53.568;13.266;2023-07-28T08:37:53;24.00;93.30
4425;DHT22;2225;53.568;13.266;2023-07-28T08:40:20;24.10;93.10
4425;DHT22;2225;53.568;13.266;2023-07-28T08:42:47;24.10;93.30
4425;DHT22;2225;53.568;13.266;2023-07-28T08:45:17;24.20;93.40
4425;DHT22;2225;53.568;13.266;2023-07-28T08:47:45;24.20;93.30
4425;DHT22;2225;53.568;13.266;2023-07-28T08:50:12;24.30;93.10
4425;DHT22;2225;53.568;13.266;2023-07-28T08:52:40;24.40;93.10
4425;DHT22;2225;53.568;13.266;2023-07-28T08:55:07;24.50;93.00
4425;DHT22;2225;53.568;13.266;2023-07-28T08:57:36;24.50;92.60
4425;DHT22;2225;53.568;13.266;2023-07-28T09:00:10;24.60;92.50
4425;DHT22;2225;53.568;13.266;2023-07-28T09:02:41;24.60;92.50
4425;DHT22;2225;53.568;13.266;2023-07-28T09:05:19;24.60;92.60
4425;DHT22;2225;53.568;13.266;2023-07-28T09:07:47;24.60;92.20
4425;DHT22;2225;53.568;13.266;2023-07-28T09:10:14;24.60;92.10
4425;DHT22;2225;53.568;13.266;2023-07-28T09:12:46;24.70;92.30
4425;DHT22;2225;53.568;13.266;2023-07-28T09:15:15;24.70;92.70
4425;DHT22;2225;53.568;13.266;2023-07-28T09:17:45;24.80;92.20
4425;DHT22;2225;53.568;13.266;2023-07-28T09:20:14;24.80;92.10
4425;DHT22;2225;53.568;13.266;2023-07-28T09:22:42;24.80;92.30
4425;DHT22;2225;53.568;13.266;2023-07-28T09:25:14;24.90;92.10
4425;DHT22;2225;53.568;13.266;2023-07-28T09:27:52;25.00;92.10
4425;DHT22;2225;53.568;13.266;2023-07-28T09:30:20;25.10;91.30
4425;DHT22;2225;53.568;13.266;2023-07-28T09:32:50;25.10;91.40
4425;DHT22;2225;53.568;13.266;2023-07-28T09:35:18;25.20;91.50
4425;DHT22;2225;53.568;13.266;2023-07-28T09:37:47;25.20;91.10
4425;DHT22;2225;53.568;13.266;2023-07-28T09:40:22;25.30;90.90
4425;DHT22;2225;53.568;13.266;2023-07-28T09:42:50;25.30;90.90
4425;DHT22;2225;53.568;13.266;2023-07-28T09:45:22;25.40;90.80
4425;DHT22;2225;53.568;13.266;2023-07-28T09:48:05;25.40;90.90
4425;DHT22;2225;53.568;13.266;2023-07-28T09:50:37;25.50;91.20
4425;DHT22;2225;53.568;13.266;2023-07-28T09:53:08;25.50;90.90
4425;DHT22;2225;53.568;13.266;2023-07-28T09:55:39;25.60;90.90
4425;DHT22;2225;53.568;13.266;2023-07-28T09:58:10;25.60;90.40
4425;DHT22;2225;53.568;13.266;2023-07-28T10:00:38;25.60;90.20
4425;DHT22;2225;53.568;13.266;2023-07-28T10:03:05;25.70;90.30
4425;DHT22;2225;53.568;13.266;2023-07-28T10:05:33;25.80;90.30
4425;DHT22;2225;53.568;13.266;2023-07-28T10:08:01;25.80;90.00
4425;DHT22;2225;53.568;13.266;2023-07-28T10:10:28;25.90;90.00
4425;DHT22;2225;53.568;13.266;2023-07-28T10:12:57;26.00;88.20
4425;DHT22;2225;53.568;13.266;2023-07-28T10:15:31;26.10;87.20
4425;DHT22;2225;53.568;13.266;2023-07-28T10:17:59;26.10;86.80
4425;DHT22;2225;53.568;13.266;2023-07-28T10:20:46;26.00;86.40
4425;DHT22;2225;53.568;13.266;2023-07-28T10:23:22;26.00;87.00
4425;DHT22;2225;53.568;13.266;2023-07-28T10:25:58;25.90;85.90
4425;DHT22;2225;53.568;13.266;2023-07-28T10:28:32;25.90;85.30
4425;DHT22;2225;53.568;13.266;2023-07-28T10:31:06;25.80;86.00
4425;DHT22;2225;53.568;13.266;2023-07-28T10:33:39;25.80;86.00
4425;DHT22;2225;53.568;13.266;2023-07-28T10:42:08;25.70;87.00
4425;DHT22;2225;53.568;13.266;2023-07-28T10:44:36;25.70;86.80
4425;DHT22;2225;53.568;13.266;2023-07-28T10:47:08;25.70;87.30
4425;DHT22;2225;53.568;13.266;2023-07-28T10:49:36;25.80;88.10
4425;DHT22;2225;53.568;13.266;2023-07-28T10:52:03;25.80;88.20
4425;DHT22;2225;53.568;13.266;2023-07-28T10:54:34;25.90;87.50
4425;DHT22;2225;53.568;13.266;2023-07-28T10:57:02;25.90;87.10
4425;DHT22;2225;53.568;13.266;2023-07-28T10:59:32;26.00;87.10
4425;DHT22;2225;53.568;13.266;2023-07-28T11:01:59;26.10;86.90
4425;DHT22;2225;53.568;13.266;2023-07-28T11:04:26;26.30;85.60
4425;DHT22;2225;53.568;13.266;2023-07-28T11:06:53;26.40;84.60
4425;DHT22;2225;53.568;13.266;2023-07-28T11:09:23;26.50;84.10
4425;DHT22;2225;53.568;13.266;2023-07-28T11:11:51;26.70;83.90
4425;DHT22;2225;53.568;13.266;2023-07-28T11:14:18;26.80;84.90
4425;DHT22;2225;53.568;13.266;2023-07-28T11:16:47;26.90;83.40
4425;DHT22;2225;53.568;13.266;2023-07-28T11:19:15;27.00;82.10
4425;DHT22;2225;53.568;13.266;2023-07-28T11:21:44;27.10;81.30
4425;DHT22;2225;53.568;13.266;2023-07-28T11:24:20;27.20;82.00
4425;DHT22;2225;53.568;13.266;2023-07-28T11:26:49;27.30;81.00
4425;DHT22;2225;53.568;13.266;2023-07-28T11:29:18;27.40;81.10
4425;DHT22;2225;53.568;13.266;2023-07-28T11:31:45;27.50;81.30
4425;DHT22;2225;53.568;13.266;2023-07-28T11:34:19;27.60;80.20
4425;DHT22;2225;53.568;13.266;2023-07-28T11:36:46;27.70;79.50
4425;DHT22;2225;53.568;13.266;2023-07-28T11:39:13;27.70;79.90
4425;DHT22;2225;53.568;13.266;2023-07-28T11:41:41;27.80;80.00
4425;DHT22;2225;53.568;13.266;2023-07-28T11:44:10;27.90;79.20
4425;DHT22;2225;53.568;13.266;2023-07-28T11:46:39;27.90;78.30
4425;DHT22;2225;53.568;13.266;2023-07-28T11:51:44;28.00;77.90
4425;DHT22;2225;53.568;13.266;2023-07-28T11:54:13;28.10;78.20
4425;DHT22;2225;53.568;13.266;2023-07-28T11:56:46;28.10;76.30
4425;DHT22;2225;53.568;13.266;2023-07-28T11:59:17;28.20;76.30
4425;DHT22;2225;53.568;13.266;2023-07-28T12:04:30;28.20;76.40
4425;DHT22;2225;53.568;13.266;2023-07-28T12:12:13;28.20;74.80
4425;DHT22;2225;53.568;13.266;2023-07-28T12:14:44;28.20;74.60
4425;DHT22;2225;53.568;13.266;2023-07-28T12:17:18;28.20;74.80
4425;DHT22;2225;53.568;13.266;2023-07-28T12:22:27;28.20;72.60
4425;DHT22;2225;53.568;13.266;2023-07-28T12:24:54;28.20;72.80
4425;DHT22;2225;53.568;13.266;2023-07-28T12:27:22;28.10;73.70
4425;DHT22;2225;53.568;13.266;2023-07-28T12:29:58;28.00;73.50
4425;DHT22;2225;53.568;13.266;2023-07-28T12:32:29;28.00;74.60
4425;DHT22;2225;53.568;13.266;2023-07-28T12:34:59;27.90;74.70
4425;DHT22;2225;53.568;13.266;2023-07-28T12:37:39;27.90;75.20
4425;DHT22;2225;53.568;13.266;2023-07-28T12:40:09;27.90;74.40
4425;DHT22;2225;53.568;13.266;2023-07-28T12:42:57;27.90;73.90
4425;DHT22;2225;53.568;13.266;2023-07-28T12:45:28;27.90;73.00
4425;DHT22;2225;53.568;13.266;2023-07-28T12:48:15;27.90;73.00
4425;DHT22;2225;53.568;13.266;2023-07-28T12:50:45;27.90;73.40
4425;DHT22;2225;53.568;13.266;2023-07-28T12:53:13;28.00;73.40
4425;DHT22;2225;53.568;13.266;2023-07-28T12:55:45;28.00;73.40
4425;DHT22;2225;53.568;13.266;2023-07-28T12:58:15;28.10;74.00
4425;DHT22;2225;53.568;13.266;2023-07-28T13:00:45;28.10;72.90
4425;DHT22;2225;53.568;13.266;2023-07-28T13:03:15;28.10;72.60
4425;DHT22;2225;53.568;13.266;2023-07-28T13:05:42;28.20;72.90
4425;DHT22;2225;53.568;13.266;2023-07-28T13:08:10;28.20;72.60
4425;DHT22;2225;53.568;13.266;2023-07-28T13:10:37;28.20;72.40
4425;DHT22;2225;53.568;13.266;2023-07-28T13:13:07;28.30;73.10
4425;DHT22;2225;53.568;13.266;2023-07-28T13:15:37;28.30;72.00
4425;DHT22;2225;53.568;13.266;2023-07-28T13:18:04;28.40;71.70
4425;DHT22;2225;53.568;13.266;2023-07-28T13:20:31;28.40;71.90
4425;DHT22;2225;53.568;13.266;2023-07-28T13:22:58;28.50;72.80
4425;DHT22;2225;53.568;13.266;2023-07-28T13:25:25;28.50;72.20
4425;DHT22;2225;53.568;13.266;2023-07-28T13:27:52;28.50;72.80
4425;DHT22;2225;53.568;13.266;2023-07-28T13:30:20;28.50;71.40
4425;DHT22;2225;53.568;13.266;2023-07-28T13:32:47;28.50;69.90
4425;DHT22;2225;53.568;13.266;2023-07-28T13:35:14;28.50;69.40
4425;DHT22;2225;53.568;13.266;2023-07-28T13:37:41;28.50;67.80
4425;DHT22;2225;53.568;13.266;2023-07-28T13:40:09;28.60;67.80
4425;DHT22;2225;53.568;13.266;2023-07-28T13:42:39;28.50;67.60
4425;DHT22;2225;53.568;13.266;2023-07-28T13:45:08;28.50;67.70
4425;DHT22;2225;53.568;13.266;2023-07-28T13:47:35;28.50;67.20
4425;DHT22;2225;53.568;13.266;2023-07-28T13:50:02;28.50;66.10
4425;DHT22;2225;53.568;13.266;2023-07-28T13:52:29;28.50;66.90
4425;DHT22;2225;53.568;13.266;2023-07-28T13:54:57;28.50;67.60
4425;DHT22;2225;53.568;13.266;2023-07-28T13:57:27;28.60;67.30
4425;DHT22;2225;53.568;13.266;2023-07-28T13:59:54;28.60;67.00
4425;DHT22;2225;53.568;13.266;2023-07-28T14:02:21;28.60;67.20
4425;DHT22;2225;53.568;13.266;2023-07-28T14:04:48;28.70;67.20
4425;DHT22;2225;53.568;13.266;2023-07-28T14:07:16;28.70;67.20
4425;DHT22;2225;53.568;13.266;2023-07-28T14:09:43;28.80;66.10
4425;DHT22;2225;53.568;13.266;2023-07-28T14:12:11;28.80;64.90
4425;DHT22;2225;53.568;13.266;2023-07-28T14:14:38;28.80;65.80
4425;DHT22;2225;53.568;13.266;2023-07-28T14:17:06;28.90;65.50
4425;DHT22;2225;53.568;13.266;2023-07-28T14:19:33;28.90;65.10
4425;DHT22;2225;53.568;13.266;2023-07-28T14:22:00;29.00;65.80
4425;DHT22;2225;53.568;13.266;2023-07-28T14:24:27;29.00;64.80
4425;DHT22;2225;53.568;13.266;2023-07-28T14:26:54;29.00;65.00
4425;DHT22;2225;53.568;13.266;2023-07-28T14:29:24;29.00;65.40
4425;DHT22;2225;53.568;13.266;2023-07-28T14:31:51;29.00;65.50
4425;DHT22;2225;53.568;13.266;2023-07-28T14:34:19;29.00;63.90
4425;DHT22;2225;53.568;13.266;2023-07-28T14:36:45;29.00;64.60
4425;DHT22;2225;53.568;13.266;2023-07-28T14:39:12;29.00;64.00
4425;DHT22;2225;53.568;13.266;2023-07-28T14:41:39;28.90;64.40
4425;DHT22;2225;53.568;13.266;2023-07-28T14:44:06;28.90;65.30
4425;DHT22;2225;53.568;13.266;2023-07-28T14:46:33;28.90;65.90
4425;DHT22;2225;53.568;13.266;2023-07-28T14:49:00;29.00;65.40
4425;DHT22;2225;53.568;13.266;2023-07-28T14:51:28;29.00;64.20
4425;DHT22;2225;53.568;13.266;2023-07-28T14:53:55;29.00;64.80
4425;DHT22;2225;53.568;13.266;2023-07-28T14:56:22;29.00;65.10
4425;DHT22;2225;53.568;13.266;2023-07-28T14:58:51;29.00;64.60
4425;DHT22;2225;53.568;13.266;2023-07-28T15:01:18;29.00;65.80
4425;DHT22;2225;53.568;13.266;2023-07-28T15:03:45;29.00;66.10
4425;DHT22;2225;53.568;13.266;2023-07-28T15:06:12;29.10;64.70
4425;DHT22;2225;53.568;13.266;2023-07-28T15:08:40;29.10;65.40
4425;DHT22;2225;53.568;13.266;2023-07-28T15:11:08;29.10;65.30
4425;DHT22;2225;53.568;13.266;2023-07-28T15:13:35;29.10;64.70
4425;DHT22;2225;53.568;13.266;2023-07-28T15:16:02;29.10;64.80
4425;DHT22;2225;53.568;13.266;2023-07-28T15:18:29;29.10;64.50
4425;DHT22;2225;53.568;13.266;2023-07-28T15:20:56;29.00;64.40
4425;DHT22;2225;53.568;13.266;2023-07-28T15:23:26;29.00;64.00
4425;DHT22;2225;53.568;13.266;2023-07-28T15:25:53;29.00;64.30
4425;DHT22;2225;53.568;13.266;2023-07-28T15:28:24;29.00;65.00
4425;DHT22;2225;53.568;13.266;2023-07-28T15:30:51;29.00;65.60
4425;DHT22;2225;53.568;13.266;2023-07-28T15:33:20;29.00;64.90
4425;DHT22;2225;53.568;13.266;2023-07-28T15:35:47;29.00;64.90
4425;DHT22;2225;53.568;13.266;2023-07-28T15:38:15;29.00;64.80
4425;DHT22;2225;53.568;13.266;2023-07-28T15:40:42;29.00;64.80
4425;DHT22;2225;53.568;13.266;2023-07-28T15:43:09;29.00;64.80
4425;DHT22;2225;53.568;13.266;2023-07-28T15:45:36;29.00;65.00
4425;DHT22;2225;53.568;13.266;2023-07-28T15:48:03;29.10;65.90
4425;DHT22;2225;53.568;13.266;2023-07-28T15:50:30;29.10;66.00
4425;DHT22;2225;53.568;13.266;2023-07-28T15:52:57;29.20;66.10
4425;DHT22;2225;53.568;13.266;2023-07-28T15:55:24;29.30;66.20
4425;DHT22;2225;53.568;13.266;2023-07-28T15:57:52;29.40;65.00
4425;DHT22;2225;53.568;13.266;2023-07-28T16:00:19;29.50;65.20
4425;DHT22;2225;53.568;13.266;2023-07-28T16:02:46;29.60;63.50
4425;DHT22;2225;53.568;13.266;2023-07-28T16:05:13;29.60;63.50
4425;DHT22;2225;53.568;13.266;2023-07-28T16:07:40;29.70;63.40
4425;DHT22;2225;53.568;13.266;2023-07-28T16:10:08;29.70;63.80
4425;DHT22;2225;53.568;13.266;2023-07-28T16:12:36;29.70;63.00
4425;DHT22;2225;53.568;13.266;2023-07-28T16:15:03;29.70;63.50
4425;DHT22;2225;53.568;13.266;2023-07-28T16:17:30;29.70;62.20